Time;durP1;ratioP1;P1;durP2;ratioP2;P2;SDS_P1;SDS_P2;PMS_P1;PMS_P2;Temp;Humidity;BMP_temperature;BMP_pressure;BME280_temperature;BME280_humidity;BME280_pressure;Samples;Min_cycle;Max_cycle;Signal;HPM_P1;HPM_P2
2024/01/28 00:01:59;;;;;;;14.57;6.70;;;3.00;99.90;;;;;;5094614;28;20034;-74
2024/01/28 00:04:24;;;;;;;18.77;8.07;;;3.00;99.90;;;;;;5094401;28;20021;-73
2024/01/28 00:06:50;;;;;;;16.77;7.03;;;3.00;99.90;;;;;;5102767;28;20072;-73
2024/01/28 00:09:15;;;;;;;19.27;6.87;;;3.00;99.90;;;;;;5103209;28;20524;-85
2024/01/28 00:11:43;;;;;;;15.40;6.87;;;3.00;99.90;;;;;;5103538;28;20085;-74
2024/01/28 00:14:08;;;;;;;16.53;6.73;;;3.00;99.90;;;;;;5102551;28;20020;-74
2024/01/28 00:16:34;;;;;;;13.80;6.90;;;2.90;99.90;;;;;;5100056;28;20073;-74
2024/01/28 00:19:00;;;;;;;15.90;7.60;;;2.90;99.90;;;;;;5098158;28;20031;-74
2024/01/28 00:21:26;;;;;;;16.80;6.43;;;2.90;99.90;;;;;;5105609;28;20032;-74
2024/01/28 00:23:52;;;;;;;12.00;5.87;;;2.90;99.90;;;;;;5114446;28;20030;-74
2024/01/28 00:26:17;;;;;;;15.63;6.73;;;2.90;99.90;;;;;;5113339;28;20114;-74
2024/01/28 00:28:43;;;;;;;17.67;6.87;;;2.80;99.90;;;;;;5113714;28;20535;-74
2024/01/28 00:31:10;;;;;;;13.87;6.67;;;2.80;99.90;;;;;;5113706;28;20023;-73
2024/01/28 00:33:35;;;;;;;14.23;6.40;;;2.70;99.90;;;;;;5114353;28;20433;-73
2024/01/28 00:36:01;;;;;;;16.50;7.03;;;2.60;99.90;;;;;;5114555;28;20022;-73
2024/01/28 00:38:31;;;;;;;12.60;6.20;;;2.60;99.90;;;;;;5113054;28;20047;-75
2024/01/28 00:40:58;;;;;;;13.47;6.70;;;2.50;99.90;;;;;;5114839;28;20015;-74
2024/01/28 00:43:24;;;;;;;17.10;6.60;;;2.30;99.90;;;;;;5112724;28;20077;-75
2024/01/28 00:45:49;;;;;;;17.17;6.80;;;2.30;99.90;;;;;;5113401;28;20108;-74
2024/01/28 00:48:15;;;;;;;14.53;6.67;;;2.30;99.90;;;;;;5113473;28;20024;-73
2024/01/28 00:50:40;;;;;;;14.03;7.03;;;2.30;99.90;;;;;;5112864;28;20468;-74
2024/01/28 00:53:06;;;;;;;14.70;7.07;;;2.40;99.90;;;;;;5113246;28;20093;-74
2024/01/28 00:55:32;;;;;;;17.47;7.30;;;2.40;99.90;;;;;;5112577;28;20024;-73
2024/01/28 00:57:58;;;;;;;13.20;6.13;;;2.50;99.90;;;;;;5114484;28;20047;-73
2024/01/28 01:00:25;;;;;;;14.53;5.73;;;2.50;99.90;;;;;;5112569;28;20468;-74
2024/01/28 01:02:52;;;;;;;11.77;6.50;;;2.60;99.90;;;;;;5113143;28;20349;-73
2024/01/28 01:05:18;;;;;;;13.03;6.50;;;2.40;99.90;;;;;;5112991;28;20055;-86
2024/01/28 01:07:43;;;;;;;15.30;6.37;;;2.20;99.90;;;;;;5113030;28;20058;-74
2024/01/28 01:10:09;;;;;;;11.33;5.93;;;2.20;99.90;;;;;;5112980;28;20552;-74
2024/01/28 01:12:35;;;;;;;12.17;5.97;;;2.20;99.90;;;;;;5112484;28;20073;-74
2024/01/28 01:15:00;;;;;;;15.30;6.30;;;2.30;99.90;;;;;;5112951;28;20456;-74
2024/01/28 01:17:26;;;;;;;16.07;6.27;;;2.30;99.90;;;;;;5112390;28;20016;-74
2024/01/28 01:19:51;;;;;;;14.33;6.30;;;2.40;99.90;;;;;;5112718;28;20027;-73
2024/01/28 01:22:17;;;;;;;14.00;5.43;;;2.40;99.90;;;;;;5112748;28;20462;-73
2024/01/28 01:24:42;;;;;;;11.13;5.90;;;2.30;99.90;;;;;;5112141;28;20034;-73
2024/01/28 01:27:08;;;;;;;17.77;6.20;;;2.30;99.90;;;;;;5112637;28;20051;-73
2024/01/28 01:29:33;;;;;;;14.10;5.67;;;2.30;99.90;;;;;;5112085;28;20023;-73
2024/01/28 01:31:59;;;;;;;11.77;5.80;;;2.30;99.90;;;;;;5112532;28;20444;-74
2024/01/28 01:34:25;;;;;;;12.60;5.67;;;2.30;99.90;;;;;;5111815;28;20027;-74
2024/01/28 01:36:50;;;;;;;13.57;5.63;;;2.30;99.90;;;;;;5113355;28;20517;-74
2024/01/28 01:39:19;;;;;;;17.50;6.10;;;2.40;99.90;;;;;;5112447;28;20027;-73
2024/01/28 01:41:46;;;;;;;10.53;5.17;;;2.40;99.90;;;;;;5115022;27;20440;-73
2024/01/28 01:44:12;;;;;;;15.63;5.77;;;2.40;99.90;;;;;;5134181;27;20018;-74
2024/01/28 01:46:39;;;;;;;12.70;5.40;;;2.40;99.90;;;;;;5115259;27;20015;-74
2024/01/28 01:49:05;;;;;;;13.30;5.43;;;2.50;99.90;;;;;;5134166;27;20027;-74
2024/01/28 01:51:31;;;;;;;17.17;5.33;;;2.40;99.90;;;;;;5115266;27;20421;-74
2024/01/28 01:53:57;;;;;;;20.03;5.90;;;2.40;99.90;;;;;;5134147;27;20033;-73
2024/01/28 01:56:24;;;;;;;13.50;4.97;;;2.40;99.90;;;;;;5133212;27;20023;-74
2024/01/28 01:58:51;;;;;;;11.67;5.37;;;2.40;99.90;;;;;;5133909;27;20038;-73
2024/01/28 02:01:17;;;;;;;13.97;5.30;;;2.40;99.90;;;;;;5134058;27;20015;-73
2024/01/28 02:03:43;;;;;;;9.57;5.03;;;2.40;99.90;;;;;;5114960;28;20019;-74
2024/01/28 02:06:13;;;;;;;13.80;4.87;;;2.40;99.90;;;;;;5115549;28;20015;-73
2024/01/28 02:08:39;;;;;;;12.50;4.83;;;2.40;99.90;;;;;;5115140;28;20134;-74
2024/01/28 02:11:06;;;;;;;9.97;5.40;;;2.40;99.90;;;;;;5133776;28;20026;-74
2024/01/28 02:13:32;;;;;;;16.33;5.53;;;2.40;99.90;;;;;;5114929;28;20026;-74
2024/01/28 02:15:58;;;;;;;12.17;4.87;;;2.40;99.90;;;;;;5133732;28;20019;-73
2024/01/28 02:18:24;;;;;;;11.20;4.70;;;2.40;99.90;;;;;;5133089;28;20019;-75
2024/01/28 02:20:49;;;;;;;11.40;5.30;;;2.30;99.90;;;;;;5115542;28;20019;-74
2024/01/28 02:23:18;;;;;;;10.87;4.73;;;2.30;99.90;;;;;;5115321;28;20019;-73
2024/01/28 02:25:43;;;;;;;12.00;4.57;;;2.30;99.90;;;;;;5114745;28;20027;-73
2024/01/28 02:28:09;;;;;;;8.87;4.80;;;2.30;99.90;;;;;;5115178;28;20023;-74
2024/01/28 02:30:35;;;;;;;9.27;4.90;;;2.30;99.90;;;;;;5133159;28;20474;-74
2024/01/28 02:33:01;;;;;;;11.80;4.50;;;2.30;99.90;;;;;;5115350;28;20031;-74
2024/01/28 02:35:27;;;;;;;13.63;5.13;;;2.30;99.90;;;;;;5114980;28;20066;-74
2024/01/28 02:37:52;;;;;;;15.60;4.90;;;2.30;99.90;;;;;;5114913;28;20440;-74
2024/01/28 02:40:18;;;;;;;11.40;4.73;;;2.30;99.90;;;;;;5115129;28;20455;-74
2024/01/28 02:42:43;;;;;;;11.20;4.67;;;2.30;99.90;;;;;;5114202;28;20051;-74
2024/01/28 02:45:09;;;;;;;10.57;4.63;;;2.30;99.90;;;;;;5133472;28;20019;-74
2024/01/28 02:47:35;;;;;;;12.77;5.03;;;2.30;99.90;;;;;;5135613;27;20019;-74
2024/01/28 02:50:00;;;;;;;8.37;4.57;;;2.20;99.90;;;;;;5137492;27;20035;-74
2024/01/28 02:52:26;;;;;;;9.03;4.43;;;2.20;99.90;;;;;;5118605;27;20408;-75
2024/01/28 02:54:52;;;;;;;7.50;4.80;;;2.20;99.90;;;;;;5137452;27;20023;-73
2024/01/28 02:57:17;;;;;;;10.37;4.87;;;2.20;99.90;;;;;;5118895;27;20030;-73
2024/01/28 02:59:43;;;;;;;9.57;5.10;;;2.00;99.90;;;;;;5118349;27;20094;-73
2024/01/28 03:02:08;;;;;;;12.53;4.60;;;2.00;99.90;;;;;;5118889;27;20534;-73
2024/01/28 03:04:37;;;;;;;10.20;4.33;;;2.00;99.90;;;;;;5118348;27;20026;-74
2024/01/28 03:07:03;;;;;;;10.80;4.93;;;1.90;99.90;;;;;;5118799;27;20015;-73
2024/01/28 03:09:29;;;;;;;10.53;4.40;;;1.80;99.90;;;;;;5136502;27;20080;-73
2024/01/28 03:11:54;;;;;;;14.20;5.83;;;1.70;99.90;;;;;;5136837;27;20050;-73
2024/01/28 03:14:20;;;;;;;11.97;4.97;;;1.50;99.90;;;;;;5118676;27;20023;-73
2024/01/28 03:16:46;;;;;;;9.57;4.47;;;1.40;99.90;;;;;;5118189;27;20046;-73
2024/01/28 03:19:12;;;;;;;12.27;5.37;;;1.30;99.90;;;;;;5118386;27;20438;-73
2024/01/28 03:21:37;;;;;;;11.57;5.60;;;1.20;99.90;;;;;;5118075;27;20030;-74
2024/01/28 03:24:03;;;;;;;12.53;5.10;;;1.20;99.90;;;;;;5118238;27;20019;-73
2024/01/28 03:26:30;;;;;;;14.63;4.93;;;1.10;99.90;;;;;;5135957;27;20076;-74
2024/01/28 03:28:56;;;;;;;14.77;5.03;;;1.20;99.90;;;;;;5136757;27;20023;-73
2024/01/28 03:31:22;;;;;;;8.07;4.33;;;1.20;99.90;;;;;;5118255;27;20026;-73
2024/01/28 03:33:47;;;;;;;7.53;4.00;;;1.20;99.90;;;;;;5136159;27;20031;-73
2024/01/28 03:36:13;;;;;;;8.53;4.60;;;1.20;99.90;;;;;;5118051;27;20047;-73
2024/01/28 03:38:39;;;;;;;9.70;4.67;;;1.20;99.90;;;;;;5136064;27;20033;-74
2024/01/28 03:41:05;;;;;;;11.47;4.60;;;1.20;99.90;;;;;;5118153;27;20057;-73
2024/01/28 03:43:31;;;;;;;10.90;5.10;;;1.20;99.90;;;;;;5135650;27;20067;-74
2024/01/28 03:45:56;;;;;;;9.37;4.50;;;1.20;99.90;;;;;;5136405;27;20015;-74
2024/01/28 03:48:22;;;;;;;12.60;5.10;;;1.20;99.90;;;;;;5117888;27;20019;-73
2024/01/28 03:50:48;;;;;;;11.83;5.13;;;1.20;99.90;;;;;;5135921;27;20167;-74
2024/01/28 03:53:13;;;;;;;12.37;4.87;;;1.30;99.90;;;;;;5117969;27;20015;-75
2024/01/28 03:55:39;;;;;;;11.93;5.80;;;1.30;99.90;;;;;;5117324;27;20015;-73
2024/01/28 03:58:05;;;;;;;11.33;4.73;;;1.40;99.90;;;;;;5116575;28;20027;-73
2024/01/28 04:00:30;;;;;;;10.53;4.40;;;1.40;99.90;;;;;;5117274;27;20062;-74
2024/01/28 04:02:56;;;;;;;9.63;4.73;;;1.50;99.90;;;;;;5117371;27;20408;-73
2024/01/28 04:05:23;;;;;;;9.73;4.33;;;1.30;99.90;;;;;;5135932;27;20015;-74
2024/01/28 04:07:48;;;;;;;11.60;4.53;;;1.20;99.90;;;;;;5117068;27;20080;-74
2024/01/28 04:10:17;;;;;;;9.93;5.50;;;1.20;99.90;;;;;;5136181;27;20030;-73
2024/01/28 04:12:42;;;;;;;9.10;5.10;;;1.20;99.90;;;;;;5117135;27;20401;-73
2024/01/28 04:15:08;;;;;;;9.00;4.83;;;1.20;99.90;;;;;;5135898;27;20456;-73
2024/01/28 04:17:34;;;;;;;9.23;4.43;;;1.20;99.90;;;;;;5135420;27;20023;-74
2024/01/28 04:20:00;;;;;;;11.40;4.57;;;1.20;99.90;;;;;;5117192;27;20035;-73
2024/01/28 04:22:26;;;;;;;11.80;5.57;;;1.10;99.90;;;;;;5135680;27;20023;-73
2024/01/28 04:24:51;;;;;;;12.87;4.40;;;1.00;99.90;;;;;;5135477;27;20030;-74
2024/01/28 04:27:17;;;;;;;9.03;4.23;;;0.90;99.90;;;;;;5135817;27;20027;-73
2024/01/28 04:29:43;;;;;;;9.97;4.20;;;0.90;99.90;;;;;;5135105;27;20058;-73
2024/01/28 04:32:11;;;;;;;7.37;3.97;;;1.00;99.90;;;;;;5117073;27;20474;-73
2024/01/28 04:34:37;;;;;;;9.87;4.37;;;1.00;99.90;;;;;;5134962;27;20019;-73
2024/01/28 04:37:03;;;;;;;10.63;5.10;;;1.00;99.90;;;;;;5135362;27;20071;-73
2024/01/28 04:39:28;;;;;;;8.83;4.47;;;1.10;99.90;;;;;;5116924;27;20054;-73
2024/01/28 04:41:54;;;;;;;9.20;4.40;;;1.00;99.90;;;;;;5134495;27;20122;-73
2024/01/28 04:44:20;;;;;;;9.40;4.13;;;1.00;99.90;;;;;;5135085;27;20030;-73
2024/01/28 04:46:46;;;;;;;8.07;4.20;;;1.00;99.90;;;;;;5116307;27;20023;-73
2024/01/28 04:49:11;;;;;;;8.70;4.07;;;0.80;99.90;;;;;;5116456;27;20027;-73
2024/01/28 04:51:37;;;;;;;8.27;4.33;;;0.70;99.90;;;;;;5134629;27;20011;-73
2024/01/28 04:54:03;;;;;;;9.67;4.47;;;0.70;99.90;;;;;;5134790;27;20023;-73
2024/01/28 04:56:28;;;;;;;10.00;4.13;;;0.60;99.90;;;;;;5116626;27;20512;-73
2024/01/28 04:58:54;;;;;;;7.53;3.67;;;0.70;99.90;;;;;;5116043;27;20122;-73
2024/01/28 05:01:19;;;;;;;10.53;4.23;;;0.70;99.90;;;;;;5116612;27;20364;-73
2024/01/28 05:03:45;;;;;;;6.93;3.80;;;0.70;99.90;;;;;;5134400;27;20019;-74
2024/01/28 05:06:10;;;;;;;11.07;4.47;;;0.60;99.90;;;;;;5116521;27;20027;-73
2024/01/28 05:08:36;;;;;;;9.13;4.43;;;0.60;99.90;;;;;;5116023;27;20019;-74
2024/01/28 05:11:02;;;;;;;8.53;4.17;;;0.50;99.90;;;;;;5134431;27;20030;-73
2024/01/28 05:13:27;;;;;;;8.13;4.20;;;0.60;99.90;;;;;;5116293;27;20023;-73
2024/01/28 05:15:53;;;;;;;16.67;4.13;;;0.50;99.90;;;;;;5115884;27;20372;-74
2024/01/28 05:18:19;;;;;;;9.33;4.17;;;0.50;99.90;;;;;;5116204;27;20460;-73
2024/01/28 05:20:45;;;;;;;11.30;4.17;;;0.60;99.90;;;;;;5134083;27;20027;-73
2024/01/28 05:23:10;;;;;;;13.17;5.07;;;0.60;99.90;;;;;;5116185;27;20027;-74
2024/01/28 05:25:36;;;;;;;8.50;4.20;;;0.50;99.90;;;;;;5133734;27;20019;-76
2024/01/28 05:28:02;;;;;;;7.10;3.77;;;0.50;99.90;;;;;;5134670;27;20015;-74
2024/01/28 05:30:29;;;;;;;9.53;4.60;;;0.60;99.90;;;;;;5115952;27;20036;-74
2024/01/28 05:32:55;;;;;;;7.33;3.93;;;0.60;99.90;;;;;;5115487;27;20118;-74
2024/01/28 05:35:20;;;;;;;10.23;4.40;;;0.60;99.90;;;;;;5134070;27;20090;-73
2024/01/28 05:37:46;;;;;;;8.37;3.90;;;0.50;99.90;;;;;;5133727;27;20048;-75
2024/01/28 05:40:12;;;;;;;7.23;4.10;;;0.60;99.90;;;;;;5115694;27;20456;-74
2024/01/28 05:42:37;;;;;;;9.70;3.93;;;0.60;99.90;;;;;;5133279;27;20071;-74
2024/01/28 05:45:03;;;;;;;9.30;4.67;;;0.50;99.90;;;;;;5115816;27;20023;-74
2024/01/28 05:47:29;;;;;;;10.60;4.73;;;0.50;99.90;;;;;;5134182;27;20071;-74
2024/01/28 05:49:55;;;;;;;6.10;3.50;;;0.50;99.90;;;;;;5115173;27;20198;-74
2024/01/28 05:52:20;;;;;;;10.00;4.50;;;0.50;99.90;;;;;;5115669;27;20028;-74
2024/01/28 05:54:46;;;;;;;9.77;4.47;;;0.60;99.90;;;;;;5133607;27;20022;-74
2024/01/28 05:57:12;;;;;;;7.97;4.27;;;0.60;99.90;;;;;;5133709;27;20027;-74
2024/01/28 05:59:38;;;;;;;12.77;4.37;;;0.60;99.90;;;;;;5133555;27;20035;-74
2024/01/28 06:02:04;;;;;;;7.60;4.47;;;0.50;99.90;;;;;;5133991;27;20031;-73
2024/01/28 06:04:30;;;;;;;8.17;4.10;;;0.50;99.90;;;;;;5133969;27;20027;-73
2024/01/28 06:06:55;;;;;;;13.17;4.33;;;0.50;99.90;;;;;;5133705;27;20023;-74
2024/01/28 06:09:21;;;;;;;8.00;4.07;;;0.60;99.90;;;;;;5115538;28;20031;-73
2024/01/28 06:11:47;;;;;;;13.87;4.33;;;0.60;99.90;;;;;;5133654;28;20418;-74
2024/01/28 06:14:12;;;;;;;9.00;4.47;;;0.60;99.90;;;;;;5115332;28;20050;-73
2024/01/28 06:16:38;;;;;;;11.73;5.23;;;0.70;99.90;;;;;;5114984;28;20075;-74
2024/01/28 06:19:04;;;;;;;11.47;4.07;;;0.70;99.90;;;;;;5115320;28;20536;-74
2024/01/28 06:21:30;;;;;;;10.50;4.40;;;0.70;99.90;;;;;;5116147;27;20022;-74
2024/01/28 06:23:55;;;;;;;9.23;4.70;;;0.80;99.90;;;;;;5119156;27;20019;-74
2024/01/28 06:26:21;;;;;;;12.23;4.30;;;0.80;99.90;;;;;;5119440;27;20030;-73
2024/01/28 06:28:47;;;;;;;9.67;5.10;;;0.80;99.90;;;;;;5137792;27;20164;-73
2024/01/28 06:31:13;;;;;;;12.97;4.63;;;0.80;99.90;;;;;;5119542;27;20027;-74
2024/01/28 06:33:40;;;;;;;10.10;4.33;;;0.80;99.90;;;;;;5118890;27;20460;-74
2024/01/28 06:36:06;;;;;;;10.73;4.13;;;0.80;99.90;;;;;;5137755;27;20023;-73
2024/01/28 06:38:31;;;;;;;11.00;4.80;;;0.80;99.90;;;;;;5137643;27;20034;-73
2024/01/28 06:40:57;;;;;;;11.40;4.60;;;0.80;99.90;;;;;;5121522;27;20107;-73
2024/01/28 06:43:26;;;;;;;11.87;5.03;;;0.80;99.90;;;;;;5098163;28;20054;-73
2024/01/28 06:45:52;;;;;;;8.53;4.37;;;0.80;99.90;;;;;;5116621;28;20050;-73
2024/01/28 06:48:18;;;;;;;11.27;4.37;;;0.80;99.90;;;;;;5117098;28;20030;-73
2024/01/28 06:50:44;;;;;;;10.83;4.43;;;0.80;99.90;;;;;;5116533;28;20035;-73
2024/01/28 06:53:10;;;;;;;10.27;4.70;;;0.80;99.90;;;;;;5098563;28;20035;-73
2024/01/28 06:55:36;;;;;;;8.97;4.73;;;0.80;99.90;;;;;;5098541;28;20020;-73
2024/01/28 06:58:01;;;;;;;8.77;5.20;;;0.80;99.90;;;;;;5116480;28;20066;-73
2024/01/28 07:00:27;;;;;;;12.37;4.93;;;0.70;99.90;;;;;;5116550;27;20042;-74
2024/01/28 07:02:56;;;;;;;11.50;4.43;;;0.70;99.90;;;;;;5097960;28;20508;-73
2024/01/28 07:05:21;;;;;;;10.23;4.80;;;0.60;99.90;;;;;;5116666;28;20054;-74
2024/01/28 07:07:47;;;;;;;9.20;4.87;;;0.50;99.90;;;;;;5116123;28;20047;-74
2024/01/28 07:10:13;;;;;;;11.80;4.80;;;0.60;99.90;;;;;;5117886;27;20034;-73
2024/01/28 07:12:39;;;;;;;9.13;4.40;;;0.70;99.90;;;;;;5118741;27;20456;-73
2024/01/28 07:15:05;;;;;;;7.53;4.40;;;0.60;99.90;;;;;;5118047;27;20041;-73
2024/01/28 07:17:31;;;;;;;11.33;4.30;;;0.50;99.90;;;;;;5118369;27;20027;-73
2024/01/28 07:19:57;;;;;;;9.27;5.03;;;0.50;99.90;;;;;;5136496;27;20024;-73
2024/01/28 07:22:23;;;;;;;11.77;4.97;;;0.50;99.90;;;;;;5116218;27;20120;-74
2024/01/28 07:24:49;;;;;;;8.83;4.67;;;0.60;99.90;;;;;;5115586;28;20051;-73
2024/01/28 07:27:15;;;;;;;11.97;5.07;;;0.70;99.90;;;;;;5115507;28;20020;-73
2024/01/28 07:29:40;;;;;;;13.00;6.23;;;0.60;99.90;;;;;;5115803;28;20039;-74
2024/01/28 07:32:06;;;;;;;12.93;6.33;;;0.70;99.90;;;;;;5132789;27;20019;-73
2024/01/28 07:34:32;;;;;;;10.63;5.70;;;0.70;99.90;;;;;;5116819;27;20092;-73
2024/01/28 07:36:58;;;;;;;11.83;5.83;;;0.70;99.90;;;;;;5136095;27;20026;-73
2024/01/28 07:39:26;;;;;;;14.77;6.30;;;0.70;99.90;;;;;;5118349;27;20073;-73
2024/01/28 07:41:51;;;;;;;12.93;6.73;;;0.80;99.90;;;;;;5135317;27;20023;-73
2024/01/28 07:44:17;;;;;;;13.67;5.97;;;0.70;99.90;;;;;;5136639;27;20466;-73
2024/01/28 07:46:43;;;;;;;10.67;5.63;;;0.70;99.90;;;;;;5136213;27;20567;-81
2024/01/28 07:49:09;;;;;;;11.13;5.43;;;0.70;99.90;;;;;;5136181;27;20623;-73
2024/01/28 07:51:35;;;;;;;11.30;5.80;;;0.70;99.90;;;;;;5136408;27;20015;-72
2024/01/28 07:54:00;;;;;;;13.20;7.00;;;0.80;99.90;;;;;;5117249;27;20098;-73
2024/01/28 07:56:26;;;;;;;13.80;6.93;;;0.70;99.90;;;;;;5136142;27;20020;-73
2024/01/28 07:58:52;;;;;;;14.47;6.67;;;0.80;99.90;;;;;;5135758;27;20045;-73
2024/01/28 08:01:17;;;;;;;13.57;6.63;;;0.80;99.90;;;;;;5136079;27;20015;-73
2024/01/28 08:03:43;;;;;;;14.20;6.30;;;0.90;99.90;;;;;;5135979;27;20025;-79
2024/01/28 08:06:09;;;;;;;14.83;7.00;;;0.90;99.90;;;;;;5117309;27;20019;-73
2024/01/28 08:08:35;;;;;;;19.80;7.80;;;0.90;99.90;;;;;;5117533;27;20027;-73
2024/01/28 08:11:01;;;;;;;14.87;6.80;;;0.90;99.90;;;;;;5135200;27;20038;-73
2024/01/28 08:13:27;;;;;;;12.60;5.73;;;0.90;99.90;;;;;;5135746;27;20011;-74
2024/01/28 08:15:54;;;;;;;13.03;6.00;;;0.90;99.90;;;;;;5135458;27;20466;-74
2024/01/28 08:18:20;;;;;;;10.47;5.53;;;1.00;99.90;;;;;;5117295;27;20205;-73
2024/01/28 08:20:46;;;;;;;10.53;5.70;;;1.00;99.90;;;;;;5134941;27;20102;-74
2024/01/28 08:23:11;;;;;;;11.53;4.83;;;1.00;99.90;;;;;;5117590;27;20023;-73
2024/01/28 08:25:37;;;;;;;13.77;5.50;;;1.10;99.90;;;;;;5135689;27;20440;-74
2024/01/28 08:28:03;;;;;;;13.60;6.27;;;1.10;99.90;;;;;;5134832;27;20088;-73
2024/01/28 08:30:28;;;;;;;15.23;5.23;;;1.10;99.90;;;;;;5135369;27;20023;-74
2024/01/28 08:32:54;;;;;;;15.13;6.30;;;1.20;99.90;;;;;;5135106;27;20057;-74
2024/01/28 08:35:21;;;;;;;18.87;7.30;;;1.20;99.90;;;;;;5116986;27;20467;-74
2024/01/28 08:37:47;;;;;;;15.07;6.60;;;1.20;99.90;;;;;;5116470;27;20438;-74
2024/01/28 08:40:14;;;;;;;20.67;8.53;;;1.20;99.90;;;;;;5117177;27;20521;-73
2024/01/28 08:42:40;;;;;;;14.47;6.50;;;1.20;99.90;;;;;;5116694;27;20078;-74
2024/01/28 08:45:06;;;;;;;13.60;6.13;;;1.30;99.90;;;;;;5134309;27;20472;-73
2024/01/28 08:47:31;;;;;;;12.43;5.67;;;1.30;99.90;;;;;;5116850;27;20019;-73
2024/01/28 08:49:57;;;;;;;13.83;6.00;;;1.30;99.90;;;;;;5134691;27;20034;-74
2024/01/28 08:52:23;;;;;;;13.10;5.73;;;1.20;99.90;;;;;;5116592;27;20015;-74
2024/01/28 08:54:49;;;;;;;11.40;5.10;;;1.30;99.90;;;;;;5116174;27;20022;-74
2024/01/28 08:57:14;;;;;;;10.77;5.40;;;1.30;99.90;;;;;;5116334;27;20022;-73
2024/01/28 08:59:40;;;;;;;14.47;7.00;;;1.30;99.90;;;;;;5116570;27;20084;-74
2024/01/28 09:02:06;;;;;;;11.77;5.90;;;1.30;99.90;;;;;;5116051;27;20416;-74
2024/01/28 09:04:31;;;;;;;9.57;5.10;;;1.40;99.90;;;;;;5134791;27;20046;-74
2024/01/28 09:06:57;;;;;;;10.33;5.17;;;1.40;99.90;;;;;;5134206;27;20022;-74
2024/01/28 09:09:22;;;;;;;9.63;5.43;;;1.50;99.90;;;;;;5116408;27;20031;-74
2024/01/28 09:11:48;;;;;;;10.90;5.13;;;1.50;99.90;;;;;;5134343;27;20337;-75
2024/01/28 09:14:14;;;;;;;10.10;5.10;;;1.60;99.90;;;;;;5134344;27;20022;-73
2024/01/28 09:16:39;;;;;;;11.73;6.03;;;1.70;99.90;;;;;;5116228;27;20019;-74
2024/01/28 09:19:05;;;;;;;11.87;5.70;;;1.70;99.90;;;;;;5115633;27;20027;-74
2024/01/28 09:21:31;;;;;;;8.80;5.33;;;1.70;99.90;;;;;;5134348;27;20065;-74
2024/01/28 09:23:58;;;;;;;10.13;5.17;;;1.70;99.90;;;;;;5115494;27;20015;-74
2024/01/28 09:26:24;;;;;;;9.90;5.27;;;1.80;99.90;;;;;;5116298;27;20109;-73
2024/01/28 09:28:50;;;;;;;9.30;4.80;;;1.90;99.90;;;;;;5115669;27;20059;-74
2024/01/28 09:31:15;;;;;;;11.53;5.50;;;1.90;99.90;;;;;;5134010;27;20411;-73
2024/01/28 09:33:42;;;;;;;9.77;5.10;;;1.90;99.90;;;;;;5115693;27;20122;-73
2024/01/28 09:36:09;;;;;;;12.13;5.33;;;1.90;99.90;;;;;;5133876;27;20767;-74
2024/01/28 09:38:34;;;;;;;14.57;5.10;;;1.90;99.90;;;;;;5134577;27;20023;-74
2024/01/28 09:41:24;;;;;;;10.13;5.27;;;2.00;99.90;;;;;;5133672;27;20383;-74
2024/01/28 09:43:49;;;;;;;9.60;5.27;;;2.00;99.90;;;;;;5115285;27;20050;-78
2024/01/28 09:46:16;;;;;;;11.43;5.80;;;2.00;99.90;;;;;;5133996;27;20027;-74
2024/01/28 09:48:45;;;;;;;16.13;5.63;;;2.10;99.90;;;;;;5115788;27;20019;-73
2024/01/28 09:51:12;;;;;;;10.00;5.60;;;2.20;99.90;;;;;;5115041;27;20019;-74
2024/01/28 09:53:38;;;;;;;11.27;5.33;;;2.20;99.90;;;;;;5115550;27;20440;-74
2024/01/28 09:56:04;;;;;;;11.13;5.23;;;2.20;99.90;;;;;;5114480;28;20026;-74
2024/01/28 09:58:30;;;;;;;11.47;5.63;;;2.30;99.90;;;;;;5115568;27;20115;-73
2024/01/28 10:00:56;;;;;;;10.67;5.03;;;2.30;99.90;;;;;;5126055;27;20110;-74
2024/01/28 10:03:22;;;;;;;12.83;4.93;;;2.30;99.90;;;;;;5113136;28;20031;-74
2024/01/28 10:05:47;;;;;;;10.30;5.20;;;2.30;99.90;;;;;;5118524;27;20027;-74
2024/01/28 10:08:14;;;;;;;10.70;5.33;;;2.40;99.90;;;;;;5097629;28;20448;-74
2024/01/28 10:10:40;;;;;;;15.40;5.37;;;2.40;99.90;;;;;;5105913;28;20161;-73
2024/01/28 10:13:06;;;;;;;13.73;5.57;;;2.40;99.90;;;;;;5102708;28;20436;-73
2024/01/28 10:15:32;;;;;;;15.03;5.27;;;2.40;99.90;;;;;;5118484;28;20027;-74
2024/01/28 10:17:58;;;;;;;11.93;5.07;;;2.40;99.90;;;;;;5094076;28;20429;-74
2024/01/28 10:20:28;;;;;;;12.27;4.93;;;2.40;99.90;;;;;;5097671;28;20027;-75
2024/01/28 10:22:53;;;;;;;9.53;4.83;;;2.50;99.90;;;;;;5099782;28;20028;-74
2024/01/28 10:25:22;;;;;;;11.17;5.33;;;2.60;99.90;;;;;;5103492;28;20027;-73
2024/01/28 10:27:48;;;;;;;10.90;5.37;;;2.70;99.90;;;;;;5120354;28;20059;-74
2024/01/28 10:30:15;;;;;;;11.80;5.37;;;2.70;99.90;;;;;;5121518;28;20492;-74
2024/01/28 10:32:42;;;;;;;10.37;4.87;;;2.70;99.90;;;;;;5122450;28;20035;-73
2024/01/28 10:35:09;;;;;;;10.10;5.47;;;2.80;99.90;;;;;;5110830;28;20464;-74
2024/01/28 10:37:35;;;;;;;11.13;5.63;;;2.80;99.90;;;;;;5094432;28;20112;-73
2024/01/28 10:40:07;;;;;;;8.40;5.30;;;2.80;99.90;;;;;;5096435;28;20113;-74
2024/01/28 10:42:41;;;;;;;11.40;5.00;;;2.90;99.90;;;;;;5101897;28;20050;-74
2024/01/28 10:45:11;;;;;;;11.23;5.37;;;2.90;99.90;;;;;;5108008;28;20037;-74
2024/01/28 10:47:44;;;;;;;11.43;4.90;;;2.90;99.90;;;;;;5114982;28;20487;-74
2024/01/28 10:50:12;;;;;;;12.00;5.13;;;2.90;99.90;;;;;;5114700;28;20425;-74
2024/01/28 10:52:38;;;;;;;10.83;4.83;;;2.90;99.90;;;;;;5115110;28;20046;-74
2024/01/28 11:03:42;;;;;;;10.00;4.77;;;3.10;99.90;;;;;;2204534;23;20302;-78
2024/01/28 11:06:07;;;;;;;9.80;4.83;;;3.10;99.90;;;;;;4989068;28;20137;-76
2024/01/28 11:08:33;;;;;;;11.17;4.67;;;3.20;99.90;;;;;;4990706;28;20149;-76
2024/01/28 11:10:59;;;;;;;10.80;5.20;;;3.20;99.90;;;;;;4993856;28;20023;-76
2024/01/28 11:13:25;;;;;;;10.40;4.67;;;3.30;99.90;;;;;;4981683;28;20133;-76
2024/01/28 11:15:54;;;;;;;9.53;5.10;;;3.40;99.90;;;;;;4993993;28;20491;-76
2024/01/28 11:18:28;;;;;;;10.13;4.70;;;3.40;99.90;;;;;;4990085;28;20050;-76
2024/01/28 11:20:54;;;;;;;9.50;5.07;;;3.40;99.90;;;;;;4995954;28;20038;-75
2024/01/28 11:23:19;;;;;;;11.47;5.53;;;3.40;99.90;;;;;;4995631;28;20026;-76
2024/01/28 11:25:46;;;;;;;11.63;4.80;;;3.50;99.90;;;;;;4994100;28;20458;-77
2024/01/28 11:28:14;;;;;;;10.53;4.50;;;3.50;99.90;;;;;;4994346;28;20125;-76
2024/01/28 11:30:40;;;;;;;8.83;4.93;;;3.60;99.90;;;;;;4994099;28;20251;-75
2024/01/28 11:33:16;;;;;;;12.80;5.10;;;3.60;99.90;;;;;;4994262;28;20459;-77
2024/01/28 11:35:45;;;;;;;10.60;4.80;;;3.70;99.90;;;;;;4993481;28;20033;-77
2024/01/28 11:38:19;;;;;;;9.27;4.20;;;3.70;99.90;;;;;;4992846;28;20022;-77
2024/01/28 11:40:52;;;;;;;9.43;4.67;;;3.80;99.90;;;;;;4991536;28;20434;-78
2024/01/28 11:43:18;;;;;;;10.30;4.70;;;3.90;99.90;;;;;;4992852;28;20423;-78
2024/01/28 11:45:43;;;;;;;11.13;4.23;;;4.00;99.90;;;;;;4992709;28;20080;-78
2024/01/28 11:48:11;;;;;;;14.73;4.87;;;4.10;99.90;;;;;;4991851;28;20038;-78
2024/01/28 11:50:38;;;;;;;6.83;4.60;;;4.10;99.90;;;;;;4990052;28;20038;-77
2024/01/28 11:53:06;;;;;;;9.73;4.80;;;4.10;99.90;;;;;;4992977;28;20022;-77
2024/01/28 11:55:35;;;;;;;8.20;4.53;;;4.20;99.90;;;;;;4993370;28;20026;-77
2024/01/28 11:58:01;;;;;;;9.17;4.50;;;4.20;99.90;;;;;;4994723;28;20088;-76
2024/01/28 12:00:27;;;;;;;7.33;4.63;;;4.20;99.90;;;;;;4994068;28;20072;-77
2024/01/28 12:02:53;;;;;;;10.17;4.77;;;4.30;99.90;;;;;;4993882;28;20077;-76
2024/01/28 12:05:19;;;;;;;9.43;4.43;;;4.30;99.90;;;;;;4992973;28;20054;-79
2024/01/28 12:07:46;;;;;;;7.83;4.47;;;4.30;99.90;;;;;;4990627;28;20030;-77
2024/01/28 12:10:12;;;;;;;11.03;5.20;;;4.50;99.90;;;;;;4993528;28;20037;-77
2024/01/28 12:12:42;;;;;;;7.03;4.07;;;4.50;99.90;;;;;;4992503;28;20034;-77
2024/01/28 12:15:09;;;;;;;11.13;3.87;;;4.70;99.90;;;;;;4991305;28;20121;-78
2024/01/28 12:17:36;;;;;;;8.80;4.47;;;4.80;99.90;;;;;;4992308;28;20109;-76
2024/01/28 12:20:03;;;;;;;9.70;4.47;;;4.90;99.90;;;;;;4991619;28;20554;-78
2024/01/28 12:22:38;;;;;;;10.83;4.30;;;5.00;99.90;;;;;;4992584;28;20088;-76
2024/01/28 12:25:10;;;;;;;7.97;4.33;;;5.20;99.90;;;;;;4991821;28;20105;-77
2024/01/28 12:27:40;;;;;;;10.53;4.23;;;5.40;99.90;;;;;;4991377;28;20093;-76
2024/01/28 12:30:09;;;;;;;9.17;4.30;;;5.50;99.90;;;;;;4992267;28;20034;-78
2024/01/28 12:32:37;;;;;;;9.50;4.37;;;5.90;99.90;;;;;;4992315;28;20033;-78
2024/01/28 12:35:06;;;;;;;7.00;4.07;;;6.20;99.90;;;;;;4990454;28;20471;-77
2024/01/28 12:37:36;;;;;;;11.57;4.90;;;6.40;99.90;;;;;;4990080;28;20038;-77
2024/01/28 12:40:02;;;;;;;9.87;4.40;;;6.50;99.90;;;;;;4988276;28;20034;-77
2024/01/28 12:42:28;;;;;;;9.57;4.80;;;6.60;99.90;;;;;;4990474;28;20395;-76
2024/01/28 12:44:53;;;;;;;7.40;4.57;;;6.70;99.90;;;;;;4993031;28;20031;-75
2024/01/28 12:47:19;;;;;;;7.37;4.43;;;6.90;99.90;;;;;;4992386;28;20039;-76
2024/01/28 12:49:44;;;;;;;6.97;4.37;;;6.90;99.90;;;;;;4992825;28;20037;-78
2024/01/28 12:52:10;;;;;;;7.47;4.20;;;7.00;99.90;;;;;;4992307;28;20030;-76
2024/01/28 12:54:35;;;;;;;7.90;4.17;;;7.10;99.90;;;;;;4994533;28;20084;-79